createdAt,value
2023-05-02T00:00:52.784Z,101623.09
2023-05-02T00:03:26.383Z,101632.22
2023-05-02T00:06:00.506Z,101645.25
2023-05-02T00:08:33.131Z,101646.25
2023-05-02T00:11:05.760Z,101649.00
2023-05-02T00:13:38.391Z,101648.09
2023-05-02T00:16:11.401Z,101646.25
2023-05-02T00:18:43.994Z,101656.91
2023-05-02T00:21:16.561Z,101653.16
2023-05-02T00:23:51.305Z,101659.53
2023-05-02T00:26:25.693Z,101656.72
2023-05-02T00:28:59.213Z,101671.84
2023-05-02T00:31:32.327Z,101660.94
2023-05-02T00:34:04.925Z,101669.13
2023-05-02T00:36:37.612Z,101655.41
2023-05-02T00:39:10.825Z,101665.63
2023-05-02T00:41:43.385Z,101668.44
2023-05-02T00:44:15.938Z,101666.91
2023-05-02T00:46:48.755Z,101670.25
2023-05-02T00:49:21.468Z,101662.94
2023-05-02T00:51:55.064Z,101667.81
2023-05-02T00:54:27.902Z,101680.13
2023-05-02T00:57:00.454Z,101674.00
2023-05-02T00:59:36.954Z,101675.78
2023-05-02T01:02:32.376Z,101678.59
2023-05-02T01:05:33.827Z,101673.09
2023-05-02T01:08:25.021Z,101668.41
2023-05-02T01:11:16.328Z,101673.00
2023-05-02T01:13:53.355Z,101676.56
2023-05-02T01:16:27.961Z,101676.94
2023-05-02T01:19:08.820Z,101679.59
2023-05-02T01:21:42.527Z,101678.63
2023-05-02T01:24:57.999Z,101683.38
2023-05-02T01:28:11.051Z,101682.47
2023-05-02T01:30:47.226Z,101689.56
2023-05-02T01:33:22.899Z,101678.03
2023-05-02T01:35:57.950Z,101686.00
2023-05-02T01:38:34.182Z,101674.41
2023-05-02T01:41:08.567Z,101674.72
2023-05-02T01:43:42.635Z,101686.19
2023-05-02T01:46:15.881Z,101686.00
2023-05-02T01:48:52.073Z,101689.56
2023-05-02T01:51:31.732Z,101691.28
2023-05-02T01:54:09.080Z,101693.13
2023-05-02T01:56:43.560Z,101686.75
2023-05-02T01:59:20.946Z,101692.91
2023-05-02T02:01:55.837Z,101700.94
2023-05-02T02:04:30.082Z,101696.28
2023-05-02T02:07:07.278Z,101703.56
2023-05-02T02:09:41.478Z,101700.78
2023-05-02T02:12:38.569Z,101714.34
2023-05-02T02:15:25.958Z,101722.13
2023-05-02T02:18:11.678Z,101714.06
2023-05-02T02:20:48.788Z,101728.22
2023-05-02T02:23:28.083Z,101725.59
2023-05-02T02:26:04.155Z,101727.41
2023-05-02T02:28:36.887Z,101733.53
2023-05-02T02:31:09.464Z,101729.19
2023-05-02T02:33:42.154Z,101731.09
2023-05-02T02:36:34.674Z,101735.53
2023-05-02T02:39:39.967Z,101736.44
2023-05-02T02:42:24.172Z,101729.28
2023-05-02T02:45:22.860Z,101741.63
2023-05-02T02:48:41.696Z,101741.56
2023-05-02T02:51:29.879Z,101745.97
2023-05-02T02:54:31.649Z,101740.00
2023-05-02T02:57:13.953Z,101751.44
2023-05-02T03:00:14.047Z,101752.13
2023-05-02T03:02:48.373Z,101762.03
2023-05-02T03:05:22.759Z,101747.81
2023-05-02T03:07:55.966Z,101761.00
2023-05-02T03:10:28.608Z,101767.06
2023-05-02T03:13:01.595Z,101765.56
2023-05-02T03:16:25.336Z,101770.81
2023-05-02T03:18:58.258Z,101771.72
2023-05-02T03:21:31.882Z,101780.41
2023-05-02T03:24:05.180Z,101776.78
2023-05-02T03:26:37.653Z,101779.59
2023-05-02T03:29:10.148Z,101784.56
2023-05-02T03:31:42.855Z,101781.91
2023-05-02T03:34:15.488Z,101787.28
2023-05-02T03:36:48.059Z,101786.59
2023-05-02T03:39:20.582Z,101774.31
2023-05-02T03:41:53.190Z,101778.59
2023-05-02T03:44:25.796Z,101777.66
2023-05-02T03:46:58.424Z,101781.28
2023-05-02T03:49:30.967Z,101790.13
2023-05-02T03:52:03.903Z,101784.75
2023-05-02T03:54:36.439Z,101798.13
2023-05-02T03:57:09.264Z,101803.28
2023-05-02T03:59:43.023Z,101804.22
2023-05-02T04:02:16.052Z,101815.00
2023-05-02T04:04:49.267Z,101818.44
2023-05-02T04:07:21.820Z,101815.81
2023-05-02T04:09:54.399Z,101812.22
2023-05-02T04:12:26.961Z,101815.88
2023-05-02T04:14:59.434Z,101818.38
2023-05-02T04:17:32.033Z,101817.53
2023-05-02T04:20:06.309Z,101830.00
2023-05-02T04:22:42.149Z,101833.44
2023-05-02T04:25:15.043Z,101842.31
2023-05-02T04:27:47.755Z,101838.00
2023-05-02T04:30:20.453Z,101847.69
2023-05-02T04:32:53.529Z,101846.63
2023-05-02T04:35:26.471Z,101854.72
2023-05-02T04:37:59.006Z,101855.47
2023-05-02T04:40:31.517Z,101883.00
2023-05-02T04:43:04.015Z,101883.06
2023-05-02T04:45:36.869Z,101877.81
2023-05-02T04:48:09.418Z,101881.31
2023-05-02T04:50:41.959Z,101887.44
2023-05-02T04:53:14.615Z,101892.78
2023-05-02T04:55:47.249Z,101903.22
2023-05-02T04:58:19.846Z,101906.81
2023-05-02T05:00:52.537Z,101910.31
2023-05-02T05:03:25.463Z,101915.63
2023-05-02T05:05:58.081Z,101916.47
2023-05-02T05:08:30.656Z,101907.59
2023-05-02T05:11:05.063Z,101933.31
2023-05-02T05:13:37.613Z,101928.06
2023-05-02T05:16:10.077Z,101924.56
2023-05-02T05:18:43.194Z,101933.44
2023-05-02T05:21:15.810Z,101928.94
2023-05-02T05:23:48.516Z,101943.00
2023-05-02T05:26:21.417Z,101938.72
2023-05-02T05:28:54.036Z,101951.03
2023-05-02T05:31:26.715Z,101944.03
2023-05-02T05:33:59.486Z,101950.03
2023-05-02T05:36:32.359Z,101950.06
2023-05-02T05:39:04.842Z,101955.41
2023-05-02T05:41:38.216Z,101950.97
2023-05-02T05:44:10.735Z,101954.44
2023-05-02T05:46:43.240Z,101963.38
2023-05-02T05:49:17.406Z,101960.69
2023-05-02T05:51:50.142Z,101957.22
2023-05-02T05:54:23.107Z,101968.66
2023-05-02T05:56:55.629Z,101965.09
2023-05-02T05:59:28.415Z,101966.88
2023-05-02T06:02:00.991Z,101966.94
2023-05-02T06:04:33.521Z,101968.69
2023-05-02T06:07:06.010Z,101981.06
2023-05-02T06:09:38.523Z,101987.16
2023-05-02T06:12:11.048Z,101990.69
2023-05-02T06:14:43.658Z,101990.66
2023-05-02T06:17:16.201Z,101995.91
2023-05-02T06:19:48.732Z,102003.00
2023-05-02T06:22:21.202Z,102008.22
2023-05-02T06:24:53.752Z,102010.09
2023-05-02T06:27:26.362Z,102019.81
2023-05-02T06:29:59.108Z,102008.28
2023-05-02T06:32:32.380Z,102017.13
2023-05-02T06:35:05.441Z,102018.91
2023-05-02T06:37:38.009Z,102024.16
2023-05-02T06:40:11.028Z,102030.41
2023-05-02T06:42:43.567Z,102043.63
2023-05-02T06:45:16.173Z,102041.81
2023-05-02T06:47:48.741Z,102048.06
2023-05-02T06:50:21.421Z,102045.28
2023-05-02T06:52:53.891Z,102055.69
2023-05-02T06:55:27.291Z,102054.16
2023-05-02T06:58:00.162Z,102057.56
2023-05-02T07:00:33.019Z,102062.94
2023-05-02T07:03:05.721Z,102054.03
2023-05-02T07:05:38.335Z,102063.50
2023-05-02T07:08:11.569Z,102056.22
2023-05-02T07:10:44.140Z,102067.88
2023-05-02T07:13:16.861Z,102070.91
2023-05-02T07:15:49.490Z,102076.66
2023-05-02T07:18:22.028Z,102072.50
2023-05-02T07:20:55.105Z,102081.34
2023-05-02T07:23:27.871Z,102091.25
2023-05-02T07:26:00.579Z,102105.47
2023-05-02T07:28:33.504Z,102090.41
2023-05-02T07:31:06.341Z,102098.53
2023-05-02T07:33:38.848Z,102110.97
2023-05-02T07:36:11.642Z,102099.66
2023-05-02T07:38:44.205Z,102101.47
2023-05-02T07:41:17.073Z,102113.06
2023-05-02T07:43:49.644Z,102111.91
2023-05-02T07:46:22.316Z,102108.94
2023-05-02T07:48:55.043Z,102117.00
2023-05-02T07:51:28.230Z,102112.50
2023-05-02T07:54:01.357Z,102121.97
2023-05-02T07:56:34.579Z,102122.19
2023-05-02T07:59:07.442Z,102125.16
2023-05-02T08:01:44.761Z,102122.63
2023-05-02T08:04:17.436Z,102132.53
2023-05-02T08:06:50.461Z,102125.31
2023-05-02T08:09:24.506Z,102135.94
2023-05-02T08:11:57.731Z,102138.50
2023-05-02T08:14:31.595Z,102137.88
2023-05-02T08:17:04.213Z,102143.13
2023-05-02T08:19:36.752Z,102159.19
2023-05-02T08:22:09.283Z,102152.19
2023-05-02T08:24:42.021Z,102156.69
2023-05-02T08:27:14.547Z,102160.13
2023-05-02T08:29:47.092Z,102165.38
2023-05-02T08:32:19.705Z,102167.16
2023-05-02T08:34:57.017Z,102176.06
2023-05-02T08:37:29.618Z,102175.94
2023-05-02T08:40:02.361Z,102177.81
2023-05-02T08:42:36.159Z,102175.88
2023-05-02T08:45:13.912Z,102188.19
2023-05-02T08:47:49.320Z,102182.56
2023-05-02T08:50:22.908Z,102189.75
2023-05-02T08:52:57.984Z,102189.53
2023-05-02T08:55:31.048Z,102184.19
2023-05-02T08:58:04.466Z,102185.66
2023-05-02T09:00:43.028Z,102195.28
2023-05-02T09:03:30.707Z,102188.13
2023-05-02T09:06:15.317Z,102194.66
2023-05-02T09:08:52.975Z,102203.81
2023-05-02T09:11:25.702Z,102203.03
2023-05-02T09:14:04.073Z,102202.19
2023-05-02T09:16:40.215Z,102208.19
2023-05-02T09:19:26.038Z,102201.47
2023-05-02T09:22:02.372Z,102207.94
2023-05-02T09:24:34.916Z,102212.22
2023-05-02T09:27:07.565Z,102213.09
2023-05-02T09:29:40.879Z,102210.41
2023-05-02T09:32:13.533Z,102217.88
2023-05-02T09:35:06.621Z,102212.63
2023-05-02T09:37:39.242Z,102216.19
2023-05-02T09:40:12.192Z,102218.50
2023-05-02T09:42:45.095Z,102227.28
2023-05-02T09:45:23.695Z,102230.94
2023-05-02T09:48:03.007Z,102221.75
2023-05-02T09:50:38.739Z,102230.56
2023-05-02T09:53:11.823Z,102243.41
2023-05-02T09:55:44.768Z,102244.28
2023-05-02T09:58:24.612Z,102234.22
2023-05-02T10:00:58.955Z,102230.22
2023-05-02T10:03:32.598Z,102228.31
2023-05-02T10:06:07.789Z,102229.75
2023-05-02T10:08:43.473Z,102232.06
2023-05-02T10:11:16.018Z,102239.03
2023-05-02T10:13:49.114Z,102242.03
2023-05-02T10:16:31.006Z,102239.16
2023-05-02T10:19:12.590Z,102245.16
2023-05-02T10:21:45.704Z,102236.09
2023-05-02T10:24:19.132Z,102242.72
2023-05-02T10:26:53.528Z,102242.78
2023-05-02T10:29:31.299Z,102243.47
2023-05-02T10:32:07.095Z,102240.88
2023-05-02T10:34:41.804Z,102254.28
2023-05-02T10:37:16.469Z,102253.59
2023-05-02T10:39:50.710Z,102251.88
2023-05-02T10:42:28.107Z,102253.25
2023-05-02T10:45:00.924Z,102260.47
2023-05-02T10:47:33.889Z,102251.78
2023-05-02T10:50:08.533Z,102252.88
2023-05-02T10:52:41.513Z,102250.69
2023-05-02T10:55:18.769Z,102265.19
2023-05-02T10:57:57.368Z,102259.06
2023-05-02T11:00:33.584Z,102259.69
2023-05-02T11:03:06.335Z,102262.91
2023-05-02T11:06:08.766Z,102270.13
2023-05-02T11:08:41.835Z,102275.69
2023-05-02T11:11:41.404Z,102272.31
2023-05-02T11:14:26.151Z,102266.16
2023-05-02T11:16:59.092Z,102264.56
2023-05-02T11:19:37.696Z,102260.81
2023-05-02T11:22:19.619Z,102264.34
2023-05-02T11:24:52.560Z,102263.88
2023-05-02T11:27:31.339Z,102272.06
2023-05-02T11:30:09.791Z,102261.28
2023-05-02T11:32:45.654Z,102262.47
2023-05-02T11:35:27.796Z,102269.31
2023-05-02T11:38:05.604Z,102273.03
2023-05-02T11:40:38.377Z,102264.16
2023-05-02T11:43:16.690Z,102255.22
2023-05-02T11:45:49.503Z,102264.47
2023-05-02T11:48:24.063Z,102264.13
2023-05-02T11:51:03.541Z,102279.50
2023-05-02T11:53:41.214Z,102269.88
2023-05-02T11:56:13.793Z,102282.41
2023-05-02T11:58:58.847Z,102281.31
2023-05-02T12:01:31.533Z,102278.34
2023-05-02T12:04:08.536Z,102272.94
2023-05-02T12:06:55.808Z,102277.78
2023-05-02T12:09:28.658Z,102280.59
2023-05-02T12:12:03.286Z,102281.59
2023-05-02T12:14:38.064Z,102286.25
2023-05-02T12:17:11.541Z,102284.31
2023-05-02T12:19:44.473Z,102293.50
2023-05-02T12:22:23.755Z,102299.38
2023-05-02T12:24:56.474Z,102292.78
2023-05-02T12:27:29.596Z,102299.53
2023-05-02T12:30:02.675Z,102301.44
2023-05-02T12:32:36.935Z,102320.09
2023-05-02T12:35:23.161Z,102312.88
2023-05-02T12:38:10.489Z,102324.81
2023-05-02T12:40:48.216Z,102315.66
2023-05-02T12:43:22.240Z,102324.78
2023-05-02T12:46:11.359Z,102323.38
2023-05-02T12:48:46.186Z,102319.13
2023-05-02T12:51:24.362Z,102323.81
2023-05-02T12:53:57.309Z,102330.53
2023-05-02T12:56:34.581Z,102316.66
2023-05-02T12:59:25.711Z,102325.44
2023-05-02T13:01:59.979Z,102324.63
2023-05-02T13:04:43.157Z,102340.91
2023-05-02T13:07:15.766Z,102327.06
2023-05-02T13:09:48.562Z,102323.56
2023-05-02T13:12:21.383Z,102325.84
2023-05-02T13:14:54.097Z,102334.25
2023-05-02T13:17:26.657Z,102334.84
2023-05-02T13:20:02.009Z,102328.56
2023-05-02T13:22:36.586Z,102329.53
2023-05-02T13:25:09.359Z,102320.75
2023-05-02T13:27:42.126Z,102323.13
2023-05-02T13:30:14.798Z,102328.38
2023-05-02T13:32:47.392Z,102318.44
2023-05-02T13:35:19.999Z,102323.22
2023-05-02T13:37:52.520Z,102325.91
2023-05-02T13:40:25.103Z,102327.66
2023-05-02T13:42:57.743Z,102338.06
2023-05-02T13:45:30.481Z,102332.13
2023-05-02T13:48:03.126Z,102322.09
2023-05-02T13:50:37.762Z,102331.84
2023-05-02T13:53:11.227Z,102334.00
2023-05-02T13:55:43.844Z,102340.56
2023-05-02T13:58:16.452Z,102331.44
2023-05-02T14:00:49.063Z,102339.72
2023-05-02T14:03:21.705Z,102338.09
2023-05-02T14:05:54.341Z,102336.34
2023-05-02T14:08:27.753Z,102338.84
2023-05-02T14:11:00.384Z,102338.22
2023-05-02T14:13:33.022Z,102333.91
2023-05-02T14:16:06.224Z,102325.00
2023-05-02T14:18:38.952Z,102315.75
2023-05-02T14:21:11.701Z,102311.03
2023-05-02T14:23:44.254Z,102307.66
2023-05-02T14:26:16.877Z,102331.03
2023-05-02T14:28:49.712Z,102317.44
2023-05-02T14:31:22.487Z,102322.88
2023-05-02T14:33:55.020Z,102322.22
2023-05-02T14:36:27.633Z,102324.31
2023-05-02T14:39:00.330Z,102317.50
2023-05-02T14:41:35.280Z,102301.53
2023-05-02T14:44:07.826Z,102317.66
2023-05-02T14:46:40.598Z,102308.63
2023-05-02T14:49:13.149Z,102312.50
2023-05-02T14:51:47.592Z,102320.44
2023-05-02T14:54:20.490Z,102319.41
2023-05-02T14:56:54.043Z,102309.88
2023-05-02T14:59:29.373Z,102315.53
2023-05-02T15:02:02.114Z,102311.78
2023-05-02T15:04:34.758Z,102318.13
2023-05-02T15:07:07.665Z,102314.22
2023-05-02T15:09:41.213Z,102316.63
2023-05-02T15:12:13.794Z,102308.97
2023-05-02T15:14:46.326Z,102308.47
2023-05-02T15:17:18.932Z,102310.25
2023-05-02T15:19:51.444Z,102316.50
2023-05-02T15:22:26.066Z,102327.28
2023-05-02T15:24:58.642Z,102329.91
2023-05-02T15:27:31.276Z,102319.06
2023-05-02T15:30:04.793Z,102327.50
2023-05-02T15:32:37.697Z,102325.25
2023-05-02T15:35:16.445Z,102317.63
2023-05-02T15:37:49.196Z,102330.09
2023-05-02T15:40:21.934Z,102319.59
2023-05-02T15:42:54.704Z,102327.16
2023-05-02T15:45:27.260Z,102326.88
2023-05-02T15:48:01.732Z,102325.25
2023-05-02T15:50:34.632Z,102327.72
2023-05-02T15:53:07.318Z,102336.03
2023-05-02T15:55:39.979Z,102316.84
2023-05-02T15:58:13.820Z,102320.59
2023-05-02T16:00:47.522Z,102329.50
2023-05-02T16:03:20.278Z,102324.47
2023-05-02T16:05:54.136Z,102332.59
2023-05-02T16:08:29.570Z,102335.91
2023-05-02T16:11:02.105Z,102336.97
2023-05-02T16:13:39.561Z,102349.84
2023-05-02T16:16:20.579Z,102350.78
2023-05-02T16:18:55.716Z,102361.94
2023-05-02T16:21:31.035Z,102342.69
2023-05-02T16:24:03.693Z,102345.44
2023-05-02T16:26:36.432Z,102339.09
2023-05-02T16:29:09.063Z,102346.25
2023-05-02T16:31:44.672Z,102349.16
2023-05-02T16:34:17.506Z,102339.97
2023-05-02T16:36:51.350Z,102353.25
2023-05-02T16:39:23.958Z,102349.78
2023-05-02T16:41:56.718Z,102352.88
2023-05-02T16:44:30.378Z,102345.53
2023-05-02T16:47:05.829Z,102344.78
2023-05-02T16:49:39.331Z,102341.88
2023-05-02T16:52:11.908Z,102350.59
2023-05-02T16:54:44.497Z,102366.25
2023-05-02T16:57:21.278Z,102358.38
2023-05-02T16:59:54.103Z,102359.75
2023-05-02T17:02:42.506Z,102363.41
2023-05-02T17:05:17.689Z,102357.56
2023-05-02T17:07:51.303Z,102356.53
2023-05-02T17:10:24.195Z,102347.34
2023-05-02T17:12:58.383Z,102358.25
2023-05-02T17:15:31.312Z,102358.94
2023-05-02T17:18:04.604Z,102367.88
2023-05-02T17:20:40.047Z,102369.56
2023-05-02T17:23:13.029Z,102369.13
2023-05-02T17:25:46.319Z,102368.38
2023-05-02T17:28:20.060Z,102366.81
2023-05-02T17:30:56.228Z,102369.06
2023-05-02T17:33:28.969Z,102362.38
2023-05-02T17:36:01.698Z,102364.22
2023-05-02T17:38:34.267Z,102355.94
2023-05-02T17:41:06.821Z,102359.13
2023-05-02T17:43:40.321Z,102365.00
2023-05-02T17:46:13.577Z,102357.31
2023-05-02T17:48:46.243Z,102359.56
2023-05-02T17:51:19.013Z,102370.00
2023-05-02T17:53:52.120Z,102376.59
2023-05-02T17:56:24.730Z,102370.81
2023-05-02T17:58:57.252Z,102373.72
2023-05-02T18:01:29.901Z,102370.28
2023-05-02T18:04:04.050Z,102381.81
2023-05-02T18:06:37.089Z,102387.91
2023-05-02T18:09:09.800Z,102392.16
2023-05-02T18:11:42.804Z,102380.94
2023-05-02T18:14:15.393Z,102386.41
2023-05-02T18:16:48.723Z,102380.91
2023-05-02T18:19:22.892Z,102383.44
2023-05-02T18:21:55.548Z,102388.81
2023-05-02T18:24:28.245Z,102387.00
2023-05-02T18:27:00.859Z,102396.56
2023-05-02T18:29:36.472Z,102396.69
2023-05-02T18:32:09.137Z,102393.31
2023-05-02T18:34:41.671Z,102401.25
2023-05-02T18:37:14.206Z,102408.03
2023-05-02T18:39:46.939Z,102392.38
2023-05-02T18:42:19.501Z,102408.78
2023-05-02T18:44:52.692Z,102406.16
2023-05-02T18:47:25.525Z,102410.91
2023-05-02T18:49:59.594Z,102406.56
2023-05-02T18:52:32.509Z,102411.06
2023-05-02T18:55:06.210Z,102423.53
2023-05-02T18:57:39.013Z,102415.56
2023-05-02T19:00:13.103Z,102424.47
2023-05-02T19:02:46.155Z,102420.00
2023-05-02T19:05:18.992Z,102417.38
2023-05-02T19:07:51.715Z,102414.75
2023-05-02T19:10:24.315Z,102420.06
2023-05-02T19:12:59.515Z,102421.84
2023-05-02T19:15:34.287Z,102424.50
2023-05-02T19:18:07.185Z,102428.91
2023-05-02T19:20:40.095Z,102423.59
2023-05-02T19:23:19.613Z,102435.94
2023-05-02T19:25:52.938Z,102434.16
2023-05-02T19:28:25.563Z,102437.69
2023-05-02T19:30:58.064Z,102442.09
2023-05-02T19:33:30.884Z,102440.22
2023-05-02T19:36:06.451Z,102437.66
2023-05-02T19:38:39.004Z,102444.53
2023-05-02T19:41:11.668Z,102439.34
2023-05-02T19:43:44.529Z,102442.81
2023-05-02T19:46:18.634Z,102448.03
2023-05-02T19:48:51.413Z,102441.91
2023-05-02T19:51:25.768Z,102440.03
2023-05-02T19:54:00.938Z,102447.09
2023-05-02T19:56:33.632Z,102447.88
2023-05-02T19:59:06.641Z,102457.59
2023-05-02T20:01:39.600Z,102465.63
2023-05-02T20:04:12.375Z,102469.94
2023-05-02T20:06:45.055Z,102473.28
2023-05-02T20:09:17.622Z,102470.56
2023-05-02T20:11:50.197Z,102479.50
2023-05-02T20:14:22.848Z,102475.94
2023-05-02T20:17:01.269Z,102473.16
2023-05-02T20:19:34.455Z,102477.53
2023-05-02T20:22:06.948Z,102491.59
2023-05-02T20:24:39.667Z,102489.88
2023-05-02T20:27:12.217Z,102487.16
2023-05-02T20:29:44.840Z,102494.97
2023-05-02T20:32:18.181Z,102494.09
2023-05-02T20:34:50.691Z,102481.53
2023-05-02T20:37:23.478Z,102489.44
2023-05-02T20:39:56.573Z,102493.13
2023-05-02T20:42:29.040Z,102484.09
2023-05-02T20:45:05.310Z,102492.13
2023-05-02T20:47:38.206Z,102503.47
2023-05-02T20:50:11.058Z,102505.09
2023-05-02T20:52:43.601Z,102509.59
2023-05-02T20:55:16.154Z,102506.09
2023-05-02T20:57:52.720Z,102508.66
2023-05-02T21:00:25.328Z,102512.22
2023-05-02T21:02:57.897Z,102504.22
2023-05-02T21:05:30.518Z,102507.59
2023-05-02T21:08:03.167Z,102511.75
2023-05-02T21:10:35.800Z,102508.25
2023-05-02T21:13:08.362Z,102506.44
2023-05-02T21:15:41.202Z,102509.97
2023-05-02T21:18:13.831Z,102508.94
2023-05-02T21:20:48.970Z,102505.63
2023-05-02T21:23:21.483Z,102508.84
2023-05-02T21:25:54.984Z,102515.84
2023-05-02T21:28:27.578Z,102512.44
2023-05-02T21:31:02.159Z,102515.75
2023-05-02T21:33:34.821Z,102507.97
2023-05-02T21:36:07.911Z,102515.56
2023-05-02T21:38:40.510Z,102512.84
2023-05-02T21:41:13.090Z,102516.66
2023-05-02T21:43:45.716Z,102516.47
2023-05-02T21:46:18.456Z,102516.22
2023-05-02T21:48:50.956Z,102516.38
2023-05-02T21:51:23.465Z,102517.06
2023-05-02T21:53:55.943Z,102513.19
2023-05-02T21:56:28.462Z,102520.16
2023-05-02T21:59:01.105Z,102519.47
2023-05-02T22:01:33.935Z,102517.06
2023-05-02T22:04:06.542Z,102509.91
2023-05-02T22:06:39.222Z,102512.31
2023-05-02T22:09:11.905Z,102508.03
2023-05-02T22:11:44.578Z,102505.38
2023-05-02T22:14:17.057Z,102510.41
2023-05-02T22:16:51.494Z,102508.41
2023-05-02T22:19:25.571Z,102514.47
2023-05-02T22:22:01.516Z,102508.28
2023-05-02T22:24:34.166Z,102506.69
2023-05-02T22:27:07.432Z,102499.59
2023-05-02T22:29:40.123Z,102500.25
2023-05-02T22:32:12.760Z,102496.75
2023-05-02T22:34:45.541Z,102501.06
2023-05-02T22:37:18.414Z,102494.66
2023-05-02T22:39:51.084Z,102495.34
2023-05-02T22:42:24.066Z,102499.69
2023-05-02T22:44:56.937Z,102498.47
2023-05-02T22:47:29.646Z,102504.75
2023-05-02T22:50:05.426Z,102505.50
2023-05-02T22:52:38.397Z,102503.63
2023-05-02T22:55:11.771Z,102496.56
2023-05-02T22:57:44.459Z,102501.78
2023-05-02T23:00:19.714Z,102496.34
2023-05-02T23:02:52.411Z,102501.34
2023-05-02T23:05:25.324Z,102489.94
2023-05-02T23:07:58.033Z,102509.19
2023-05-02T23:10:31.964Z,102503.84
2023-05-02T23:13:06.044Z,102503.75
2023-05-02T23:15:38.892Z,102514.13
2023-05-02T23:18:11.474Z,102514.91
2023-05-02T23:20:43.974Z,102510.50
2023-05-02T23:23:16.498Z,102512.19
2023-05-02T23:25:49.268Z,102512.97
2023-05-02T23:28:22.165Z,102502.09
2023-05-02T23:30:54.761Z,102503.78
2023-05-02T23:33:27.450Z,102499.41
2023-05-02T23:36:00.412Z,102502.88
2023-05-02T23:38:35.358Z,102499.31
2023-05-02T23:41:08.036Z,102510.69
2023-05-02T23:43:40.963Z,102513.22
2023-05-02T23:46:13.509Z,102506.94
2023-05-02T23:48:49.153Z,102514.69
2023-05-02T23:51:21.689Z,102512.81
2023-05-02T23:53:54.445Z,102517.06
2023-05-02T23:56:27.299Z,102516.72
2023-05-02T23:58:59.889Z,102513.47
